createdAt,value
2019-04-06T00:00:54.810Z,54.75
2019-04-06T00:03:43.492Z,50.83
2019-04-06T00:06:32.730Z,52.45
2019-04-06T00:09:21.595Z,47.48
2019-04-06T00:12:10.457Z,45.10
2019-04-06T00:14:59.308Z,50.92
2019-04-06T00:17:48.990Z,50.30
2019-04-06T00:20:39.492Z,47.38
2019-04-06T00:23:28.087Z,48.27
2019-04-06T00:26:17.674Z,48.13
2019-04-06T00:29:06.920Z,49.15
2019-04-06T00:32:12.644Z,50.10
2019-04-06T00:35:01.138Z,47.70
2019-04-06T00:37:50.263Z,46.85
2019-04-06T00:40:39.426Z,45.17
2019-04-06T00:43:28.544Z,45.70
2019-04-06T00:46:17.976Z,47.35
2019-04-06T00:49:06.730Z,48.00
2019-04-06T00:51:55.992Z,47.90
2019-04-06T00:54:44.832Z,54.90
2019-04-06T00:57:34.121Z,48.90
2019-04-06T01:00:23.598Z,44.75
2019-04-06T01:03:13.174Z,47.00
2019-04-06T01:06:02.595Z,46.50
2019-04-06T01:08:51.669Z,45.63
2019-04-06T01:11:41.396Z,49.58
2019-04-06T01:14:30.117Z,49.75
2019-04-06T01:17:20.129Z,51.48
2019-04-06T01:20:10.136Z,50.28
2019-04-06T01:22:59.288Z,47.48
2019-04-06T01:25:48.666Z,46.40
2019-04-06T01:28:37.638Z,48.23
2019-04-06T01:31:26.807Z,46.45
2019-04-06T01:34:15.293Z,44.40
2019-04-06T01:37:04.096Z,47.80
2019-04-06T01:39:52.937Z,48.83
2019-04-06T01:42:42.234Z,45.80
2019-04-06T01:45:31.603Z,47.38
2019-04-06T01:48:20.679Z,44.70
2019-04-06T01:51:10.048Z,46.05
2019-04-06T01:53:58.480Z,48.08
2019-04-06T01:56:47.757Z,47.17
2019-04-06T01:59:42.933Z,47.95
2019-04-06T02:02:37.042Z,47.27
2019-04-06T02:05:25.887Z,47.03
2019-04-06T02:08:15.177Z,47.80
2019-04-06T02:11:04.044Z,50.50
2019-04-06T02:13:53.302Z,49.88
2019-04-06T02:16:42.467Z,50.00
2019-04-06T02:19:31.642Z,49.95
2019-04-06T02:22:21.026Z,48.33
2019-04-06T02:25:12.877Z,49.30
2019-04-06T02:28:02.529Z,48.00
2019-04-06T02:31:07.776Z,49.38
2019-04-06T02:33:58.972Z,46.65
2019-04-06T02:37:00.322Z,48.65
2019-04-06T02:39:53.610Z,48.87
2019-04-06T02:42:54.134Z,49.25
2019-04-06T02:45:42.937Z,47.58
2019-04-06T02:48:32.261Z,47.95
2019-04-06T02:51:20.794Z,47.00
2019-04-06T02:54:10.279Z,45.73
2019-04-06T02:56:59.657Z,45.83
2019-04-06T02:59:48.208Z,47.48
2019-04-06T03:02:37.833Z,48.45
2019-04-06T03:05:26.643Z,45.63
2019-04-06T03:08:16.424Z,45.40
2019-04-06T03:11:06.095Z,46.45
2019-04-06T03:13:55.684Z,45.55
2019-04-06T03:16:44.433Z,43.15
2019-04-06T03:19:33.724Z,46.25
2019-04-06T03:22:22.937Z,44.05
2019-04-06T03:25:12.647Z,44.38
2019-04-06T03:28:01.897Z,41.37
2019-04-06T03:30:51.379Z,43.73
2019-04-06T03:33:41.169Z,44.27
2019-04-06T03:36:30.723Z,45.50
2019-04-06T03:39:19.828Z,44.70
2019-04-06T03:42:11.103Z,43.15
2019-04-06T03:44:59.680Z,44.00
2019-04-06T03:47:48.873Z,42.43
2019-04-06T03:50:37.985Z,43.27
2019-04-06T03:53:27.291Z,43.58
2019-04-06T03:56:16.697Z,45.48
2019-04-06T03:59:06.148Z,42.67
2019-04-06T04:01:55.381Z,42.13
2019-04-06T04:04:45.366Z,44.55
2019-04-06T04:07:34.896Z,42.83
2019-04-06T04:10:36.936Z,42.60
2019-04-06T04:13:26.503Z,44.20
2019-04-06T04:16:15.491Z,43.85
2019-04-06T04:19:04.961Z,45.30
2019-04-06T04:21:53.693Z,44.80
2019-04-06T04:24:42.672Z,46.37
2019-04-06T04:27:32.047Z,44.70
2019-04-06T04:30:32.179Z,45.00
2019-04-06T04:33:12.647Z,46.53
2019-04-06T04:36:02.217Z,44.90
2019-04-06T04:38:51.675Z,46.77
2019-04-06T04:41:41.010Z,44.65
2019-04-06T04:44:30.228Z,46.40
2019-04-06T04:47:19.313Z,44.60
2019-04-06T04:50:08.961Z,45.23
2019-04-06T04:52:58.552Z,45.52
2019-04-06T04:55:48.121Z,45.83
2019-04-06T04:58:37.078Z,47.45
2019-04-06T05:01:25.519Z,45.70
2019-04-06T05:04:15.170Z,45.15
2019-04-06T05:07:04.310Z,46.18
2019-04-06T05:09:53.361Z,46.92
2019-04-06T05:12:42.988Z,45.75
2019-04-06T05:15:49.089Z,46.05
2019-04-06T05:18:38.962Z,44.85
2019-04-06T05:21:28.336Z,47.90
2019-04-06T05:24:18.013Z,47.90
2019-04-06T05:27:06.791Z,47.23
2019-04-06T05:29:55.933Z,48.13
2019-04-06T05:32:45.814Z,48.17
2019-04-06T05:35:35.639Z,50.40
2019-04-06T05:38:25.292Z,49.45
2019-04-06T05:41:14.390Z,48.38
2019-04-06T05:44:04.138Z,49.08
2019-04-06T05:46:53.214Z,46.77
2019-04-06T05:49:42.880Z,46.23
2019-04-06T05:52:31.719Z,46.45
2019-04-06T05:55:20.898Z,47.60
2019-04-06T06:20:39.204Z,52.40
2019-04-06T17:49:52.833Z,31.90
2019-04-06T17:59:01.232Z,33.70
2019-04-06T18:01:56.780Z,33.18
2019-04-06T18:04:49.083Z,35.73
2019-04-06T18:07:46.397Z,30.25
2019-04-06T18:10:42.567Z,33.67
2019-04-06T18:13:36.091Z,32.65
2019-04-06T18:16:26.672Z,32.20
2019-04-06T18:19:16.915Z,30.85
2019-04-06T18:22:06.705Z,32.73
2019-04-06T18:24:55.883Z,32.10
2019-04-06T18:27:46.272Z,33.48
2019-04-06T18:30:35.406Z,35.05
2019-04-06T18:33:27.014Z,33.55
2019-04-06T18:36:15.851Z,32.98
2019-04-06T18:39:11.554Z,33.60
2019-04-06T18:42:01.097Z,33.63
2019-04-06T18:44:50.910Z,34.40
2019-04-06T18:47:39.565Z,35.60
2019-04-06T18:50:36.574Z,32.70
2019-04-06T18:53:20.443Z,33.10
2019-04-06T18:56:10.043Z,33.20
2019-04-06T18:58:59.462Z,34.15
2019-04-06T19:01:48.486Z,33.73
2019-04-06T19:04:38.554Z,36.05
2019-04-06T19:07:27.893Z,36.83
2019-04-06T19:10:17.622Z,34.67
2019-04-06T19:13:07.185Z,34.92
2019-04-06T19:15:56.249Z,36.83
2019-04-06T19:18:45.723Z,37.20
2019-04-06T19:21:34.632Z,35.43
2019-04-06T19:24:23.507Z,32.30
2019-04-06T19:27:12.676Z,35.98
2019-04-06T19:30:02.371Z,33.78
2019-04-06T19:32:51.308Z,39.25
2019-04-06T19:35:40.831Z,35.30
2019-04-06T19:38:29.974Z,35.43
2019-04-06T19:41:19.263Z,35.80
2019-04-06T19:44:09.176Z,34.53
2019-04-06T19:46:58.644Z,35.55
2019-04-06T19:49:48.254Z,36.40
2019-04-06T19:52:39.326Z,34.38
2019-04-06T19:55:29.166Z,35.03
2019-04-06T19:58:18.053Z,35.78
2019-04-06T20:01:08.144Z,35.58
2019-04-06T20:03:58.010Z,36.98
2019-04-06T20:06:47.824Z,37.15
2019-04-06T20:09:37.110Z,35.28
2019-04-06T20:12:26.444Z,37.73
2019-04-06T20:15:15.820Z,37.17
2019-04-06T20:18:04.876Z,36.08
2019-04-06T20:20:54.125Z,37.98
2019-04-06T20:23:43.427Z,49.10
2019-04-06T20:26:32.447Z,36.05
2019-04-06T20:29:22.200Z,37.40
2019-04-06T20:32:12.135Z,38.60
2019-04-06T20:35:02.034Z,37.42
2019-04-06T20:37:51.431Z,40.08
2019-04-06T20:40:40.678Z,36.45
2019-04-06T20:43:29.829Z,40.17
2019-04-06T20:46:20.465Z,37.20
2019-04-06T20:49:10.134Z,38.90
2019-04-06T20:51:59.668Z,39.80
2019-04-06T20:54:49.173Z,37.70
2019-04-06T20:57:37.717Z,41.48
2019-04-06T21:00:27.189Z,46.77
2019-04-06T21:03:16.464Z,49.50
2019-04-06T21:06:06.434Z,39.20
2019-04-06T21:08:56.105Z,42.00
2019-04-06T21:11:45.856Z,41.68
2019-04-06T21:14:35.122Z,43.75
2019-04-06T21:17:24.642Z,42.03
2019-04-06T21:20:14.032Z,42.93
2019-04-06T21:23:03.375Z,44.95
2019-04-06T21:25:52.850Z,46.58
2019-04-06T21:28:42.157Z,43.78
2019-04-06T21:31:31.589Z,45.50
2019-04-06T21:34:20.580Z,51.98
2019-04-06T21:37:10.222Z,51.25
2019-04-06T21:39:59.834Z,43.00
2019-04-06T21:42:49.081Z,45.55
2019-04-06T21:45:38.700Z,54.80
2019-04-06T21:48:28.733Z,45.33
2019-04-06T21:51:18.042Z,44.05
2019-04-06T21:54:06.768Z,44.73
2019-04-06T21:56:55.873Z,42.58
2019-04-06T21:59:45.109Z,43.17
2019-04-06T22:02:34.519Z,45.38
2019-04-06T22:05:24.290Z,43.83
2019-04-06T22:08:14.036Z,43.83
2019-04-06T22:11:04.421Z,42.62
2019-04-06T22:13:54.002Z,43.35
2019-04-06T22:16:43.308Z,45.03
2019-04-06T22:19:32.583Z,43.80
2019-04-06T22:22:22.292Z,44.90
2019-04-06T22:25:12.215Z,42.03
2019-04-06T22:39:16.670Z,43.40
2019-04-06T22:50:32.627Z,42.90
2019-04-06T23:01:48.277Z,42.40
2019-04-06T23:04:47.657Z,47.17
2019-04-06T23:07:30.356Z,41.50
2019-04-06T23:10:20.240Z,42.15
2019-04-06T23:13:10.182Z,43.25
2019-04-06T23:15:59.507Z,42.50
2019-04-06T23:18:49.282Z,42.40
2019-04-06T23:21:39.692Z,41.70
2019-04-06T23:24:29.147Z,42.62
2019-04-06T23:38:33.880Z,43.50
